CDT,Max TemperatureF,Mean TemperatureF,Min TemperatureF,Max Dew PointF,MeanDew PointF,Min DewpointF,Max Humidity, Mean Humidity, Min Humidity, Max Sea Level PressureIn, Mean Sea Level PressureIn, Min Sea Level PressureIn, Max VisibilityMiles, Mean VisibilityMiles, Min VisibilityMiles, Max Wind SpeedMPH, Mean Wind SpeedMPH, Max Gust SpeedMPH,PrecipitationIn, CloudCover, Events, WindDirDegrees
2013-5-1,87,76,65,67,64,62,93,71,48,29.91,29.86,29.82,10,6,0,13,4,17,0.00,5,Fog,90
2013-5-2,78,63,48,64,59,42,93,81,68,30.19,30.03,29.91,10,10,4,22,10,31,0.04,7,Rain,347
2013-5-3,67,56,44,40,34,27,76,49,22,30.19,30.13,30.05,10,10,7,20,10,29,0.00,3,Rain,327
2013-5-4,80,61,41,40,35,30,86,52,18,30.05,29.94,29.85,10,10,10,22,7,30,0.00,0,,275
2013-5-5,70,57,43,45,40,35,83,60,37,30.11,30.05,29.97,10,10,10,17,5,22,0.00,1,,323
2013-5-6,81,63,44,54,46,41,92,63,33,30.11,30.05,29.97,10,6,0,12,4,21,0.00,0,Fog,299
2013-5-7,87,72,57,57,54,49,86,58,29,30.07,30.02,29.95,10,8,2,8,3,12,0.00,0,,121
2013-5-8,87,72,57,62,58,55,87,61,34,30.06,30.00,29.95,10,10,6,17,7,24,0.00,0,,153
2013-5-9,79,73,66,70,66,62,93,84,74,30.02,29.97,29.90,10,8,1,26,8,30,1.01,7,Rain,138
2013-5-10,81,74,67,68,66,64,90,76,62,30.01,29.94,29.87,10,10,8,15,4,20,T,6,Rain,166
2013-5-11,84,74,63,67,60,52,93,64,34,30.12,30.03,29.95,10,9,4,8,5,16,0.01,2,Rain,343
2013-5-12,79,66,53,55,50,43,93,61,29,30.22,30.16,30.10,10,10,8,14,5,21,0.00,0,,24
2013-5-13,84,66,48,55,49,43,93,59,24,30.30,30.22,30.17,10,10,9,12,4,21,0.00,0,,158
2013-5-14,86,70,54,61,55,45,97,64,30,30.24,30.18,30.08,10,8,1,17,6,24,0.00,2,,165
2013-5-15,74,69,63,67,64,59,93,83,73,30.14,30.07,29.91,10,7,0,17,8,23,0.43,7,Fog-Rain,150
2013-5-16,85,75,65,70,66,62,87,71,55,29.93,29.87,29.81,10,10,5,20,11,28,0.28,6,Rain,170
2013-5-17,90,82,73,73,70,69,87,72,56,29.96,29.89,29.84,10,8,5,20,9,24,0.00,6,,166
2013-5-18,92,82,71,72,69,65,93,69,44,29.96,29.92,29.88,10,8,4,20,9,24,0.00,4,,163
2013-5-19,92,83,73,70,68,65,87,66,44,29.91,29.87,29.80,10,10,10,23,11,30,0.00,2,,170
2013-5-20,91,82,73,72,71,70,93,74,55,29.92,29.86,29.77,10,9,5,17,10,27,0.00,6,,162
2013-5-21,91,79,67,73,69,61,94,72,50,29.91,29.84,29.69,10,8,1,23,11,30,1.47,6,Rain,149
2013-5-22,85,77,68,67,66,65,93,89,84,29.91,29.85,29.81,10,9,7,10,3,13,T,6,,272
2013-5-23,91,82,72,75,72,69,82,69,56,30.06,29.99,29.94,10,10,9,6,3,,0.03,2,Rain,93
2013-5-24,90,80,70,73,70,61,94,75,56,30.17,30.10,30.02,10,9,2,12,4,31,0.02,5,Rain,116
2013-5-25,89,80,71,72,69,61,93,74,55,30.17,30.12,30.08,10,9,0,31,6,43,0.50,3,Rain,113
2013-5-26,87,80,72,73,71,69,93,77,61,30.13,30.08,30.00,10,8,4,13,5,,0.07,3,Rain,140
2013-5-27,90,80,70,72,69,64,97,71,44,30.06,30.01,29.91,10,7,2,18,9,24,0.00,4,,151
2013-5-28,90,82,73,70,68,63,87,64,41,29.97,29.92,29.86,10,10,10,21,10,29,0.00,4,,165
2013-5-29,87,80,72,72,70,69,93,74,55,29.91,29.88,29.82,10,10,8,21,11,26,0.00,4,,141
2013-5-30,90,82,73,73,72,70,93,75,56,29.90,29.86,29.80,10,10,9,22,12,29,T,5,,152
2013-5-31,92,85,77,75,74,73,88,72,56,29.92,29.86,29.81,10,10,10,20,10,25,0.00,6,,156